Thursday, October 2, 2014, 8:25 AM EDT

KEZF, Fredericksburg, Shannon Airport

Location: Fredericksburg, VA, United States Lat: 38.267
Local Time: 8:25 AM EDT (12:25 GMT) Lon: -77.45
Time Zone: US/Eastern Elev: 85 ft

Show me the last for .
Show Decoded

2014-10-02 08:15 METAR KEZF 021215Z AUTO 00000KT 10SM SCT044 17/17 A3012 RMK AO2 T01680168 =
2014-10-02 07:55 METAR KEZF 021155Z AUTO 00000KT 10SM BKN046 BKN060 17/17 A3012 RMK AO2 T01650165
                 10175 20159 =
2014-10-02 07:35 METAR KEZF 021135Z AUTO 00000KT 7SM CLR 16/16 A3011 RMK AO2 T01620162 =
2014-10-02 07:15 METAR KEZF 021115Z AUTO 00000KT 10SM SCT021 SCT027 16/16 A3010 RMK AO2 T01620162
                 =
2014-10-02 06:55 METAR KEZF 021055Z AUTO 00000KT 10SM BKN021 OVC027 17/17 A3010 RMK AO2 T01680168
                 =
2014-10-02 06:35 METAR KEZF 021035Z AUTO 00000KT 10SM BKN021 BKN070 17/17 A3010 RMK AO2 T01660166
                 =
2014-10-02 06:15 METAR KEZF 021015Z AUTO 00000KT 10SM SCT070 SCT090 17/17 A3009 RMK AO2 T01700170
                 =
2014-10-02 05:55 METAR KEZF 020955Z AUTO 00000KT 10SM OVC090 17/17 A3009 RMK AO2 T01730173 =
2014-10-02 05:35 METAR KEZF 020935Z AUTO 00000KT 10SM OVC090 17/17 A3008 RMK AO2 T01730173 =
2014-10-02 05:10 METAR KEZF 020910Z AUTO 00000KT 10SM SCT070 OVC080 17/17 A3008 RMK AO2 T01720172
                 =
2014-10-02 04:55 METAR KEZF 020855Z AUTO 00000KT 10SM SCT047 SCT070 OVC080 17/17 A3008 RMK AO2
                 T01730173 =
2014-10-02 04:35 METAR KEZF 020835Z AUTO 00000KT 10SM SCT047 OVC080 17/17 A3008 RMK AO2 T01720172
                 =
2014-10-02 04:15 METAR KEZF 020815Z AUTO 00000KT 10SM SCT047 SCT070 OVC080 17/17 A3007 RMK AO2
                 T01730173 =
2014-10-02 03:55 METAR KEZF 020755Z AUTO 00000KT 10SM BKN047 OVC070 17/17 A3007 RMK AO2 T01740174
                 =
2014-10-02 03:35 METAR KEZF 020735Z AUTO 00000KT 10SM BKN047 OVC070 17/17 A3007 RMK AO2 T01720172
                 =
2014-10-02 02:55 METAR KEZF 020655Z AUTO 00000KT 10SM OVC070 17/17 A3007 RMK AO2 T01710171 =
2014-10-02 02:35 METAR KEZF 020635Z AUTO 00000KT 10SM OVC070 17/17 A3007 RMK AO2 T01700170 =
2014-10-02 01:55 METAR KEZF 020555Z AUTO 01003KT 10SM SCT085 BKN090 17/17 A3006 RMK AO2 T01700170
                 10207 20164 402540162 =
2014-10-02 01:35 METAR KEZF 020535Z AUTO 00000KT 10SM SCT070 BKN085 17/17 A3006 RMK AO2 T01690169
                 =
2014-10-02 01:15 METAR KEZF 020515Z AUTO 00000KT 10SM SCT070 BKN085 BKN100 17/17 A3006 RMK AO2
                 T01680168 =
2014-10-02 00:55 METAR KEZF 020455Z AUTO 00000KT 10SM BKN085 17/17 A3006 RMK AO2 T01660166 =
2014-10-02 00:35 METAR KEZF 020435Z AUTO 00000KT 10SM SCT085 SCT100 17/17 A3006 RMK AO2 T01680168
                 =
2014-10-02 00:15 METAR KEZF 020415Z AUTO 00000KT 10SM SCT085 SCT100 17/17 A3006 RMK AO2 T01710171
                 =
2014-10-01 23:55 METAR KEZF 020355Z AUTO 00000KT 10SM SCT100 17/17 A3006 RMK AO2 T01710171 =
2014-10-01 23:35 METAR KEZF 020335Z AUTO 00000KT 10SM SCT075 BKN090 18/18 A3006 RMK AO2 T01750175
                 =
2014-10-01 23:15 METAR KEZF 020315Z AUTO 00000KT 10SM OVC075 18/18 A3006 RMK AO2 T01810181 =
2014-10-01 22:55 METAR KEZF 020255Z AUTO 00000KT 10SM OVC075 18/18 A3006 RMK AO2 T01780178 =
2014-10-01 22:35 METAR KEZF 020235Z AUTO 00000KT 10SM BKN075 BKN110 18/18 A3006 RMK AO2 T01790179
                 =
2014-10-01 22:15 METAR KEZF 020215Z AUTO 00000KT 10SM SCT085 18/18 A3005 RMK AO2 T01800180 =
2014-10-01 21:55 METAR KEZF 020155Z AUTO 00000KT 10SM BKN085 18/18 A3005 RMK AO2 T01820180 =
2014-10-01 21:35 METAR KEZF 020135Z AUTO 00000KT 10SM BKN075 19/18 A3004 RMK AO2 T01850183 =
2014-10-01 21:15 METAR KEZF 020115Z AUTO 00000KT 10SM BKN075 BKN090 19/18 A3004 RMK AO2 T01850182
                 =
2014-10-01 20:55 METAR KEZF 020055Z AUTO 00000KT 10SM BKN075 19/18 A3004 RMK AO2 T01870181 =
2014-10-01 20:35 METAR KEZF 020035Z AUTO 00000KT 10SM SCT075 19/17 A3003 RMK AO2 T01860165 =
2014-10-01 20:15 METAR KEZF 020015Z AUTO 00000KT 10SM SCT085 19/17 A3003 RMK AO2 T01920170 =
2014-10-01 19:55 METAR KEZF 012355Z AUTO 03003KT 10SM SCT085 SCT110 21/17 A3002 RMK AO2 T02070170
                 10254 20207 =
2014-10-01 19:35 METAR KEZF 012335Z AUTO 03003KT 10SM SCT085 BKN110 21/17 A3002 RMK AO2 T02110170
                 =
2014-10-01 19:15 METAR KEZF 012315Z AUTO 02003KT 10SM SCT085 BKN110 22/17 A3001 RMK AO2 T02150170
                 =
2014-10-01 18:55 METAR KEZF 012255Z AUTO 00000KT 10SM BKN085 OVC100 22/17 A3001 RMK AO2 T02200170
                 =
2014-10-01 18:35 METAR KEZF 012235Z AUTO 05004KT 10SM BKN085 OVC110 22/17 A3000 RMK AO2 T02240171
                 =
2014-10-01 17:55 METAR KEZF 012155Z AUTO 05005KT 10SM SCT032 SCT085 BKN110 23/17 A3000 RMK AO2
                 T02330170 =
2014-10-01 17:35 METAR KEZF 012135Z AUTO 07004KT 10SM SCT110 23/17 A3000 RMK AO2 T02340166 =
2014-10-01 17:15 METAR KEZF 012115Z AUTO 36005KT 10SM CLR 24/17 A2999 RMK AO2 T02360165 =
2014-10-01 16:55 METAR KEZF 012055Z AUTO 07006KT 10SM SCT100 24/17 A2999 RMK AO2 T02380167 =
2014-10-01 16:35 METAR KEZF 012035Z AUTO 02005KT 10SM SCT060 BKN100 23/16 A2999 RMK AO2 T02330163
                 =
2014-10-01 16:15 METAR KEZF 012015Z AUTO 01005KT 10SM SCT060 SCT090 SCT110 24/16 A2999 RMK AO2
                 T02360163 =
2014-10-01 15:55 METAR KEZF 011955Z AUTO 34003KT 10SM SCT060 SCT090 24/16 A2999 RMK AO2 T02390158
                 =
2014-10-01 15:35 METAR KEZF 011935Z AUTO 03005KT 10SM SCT110 25/17 A2999 RMK AO2 T02540168 =
2014-10-01 15:15 METAR KEZF 011915Z AUTO 09005KT 10SM SCT095 25/17 A2999 RMK AO2 T02460165 =
2014-10-01 14:55 METAR KEZF 011855Z AUTO 03004KT 10SM SCT050 BKN095 24/16 A3000 RMK AO2 T02400158
                 =
2014-10-01 14:35 METAR KEZF 011835Z AUTO 00000KT 10SM OVC050 24/16 A3000 RMK AO2 T02380162 =
2014-10-01 14:15 METAR KEZF 011815Z AUTO 00000KT 10SM OVC050 23/17 A3000 RMK AO2 T02330166 =
2014-10-01 13:55 METAR KEZF 011755Z AUTO 07004KT 10SM BKN050 23/17 A3000 RMK AO2 T02340169 10234
                 20180 =
2014-10-01 13:35 METAR KEZF 011735Z AUTO 00000KT 10SM SCT050 BKN110 23/17 A3001 RMK AO2 T02340168
                 =
2014-10-01 13:15 METAR KEZF 011715Z AUTO 00000KT 10SM SCT022 SCT031 SCT050 23/17 A3002 RMK AO2
                 T02250168 =
2014-10-01 12:55 METAR KEZF 011655Z AUTO 00000KT 10SM SCT022 BKN031 23/17 A3002 RMK AO2 T02260168
                 =
2014-10-01 12:35 METAR KEZF 011635Z AUTO 00000KT 10SM BKN022 OVC029 23/17 A3003 RMK AO2 T02260172
                 =
2014-10-01 12:15 METAR KEZF 011615Z AUTO 00000KT 10SM BKN020 22/18 A3003 RMK AO2 T02190181 =
2014-10-01 11:55 METAR KEZF 011555Z AUTO 00000KT 10SM BKN018 22/18 A3003 RMK AO2 T02180181 =
2014-10-01 11:35 METAR KEZF 011535Z AUTO 03003KT 10SM OVC018 21/19 A3004 RMK AO2 T02090186 =
2014-10-01 11:15 METAR KEZF 011515Z AUTO 06007KT 10SM BKN018 BKN027 21/19 A3004 RMK AO2 T02080186
                 =
2014-10-01 10:55 METAR KEZF 011455Z AUTO 08004KT 10SM BKN025 21/18 A3003 RMK AO2 T02140184 =
2014-10-01 10:35 METAR KEZF 011435Z AUTO 06006KT 10SM SCT016 OVC023 20/19 A3003 RMK AO2 T02040190
                 =
2014-10-01 10:15 METAR KEZF 011415Z AUTO 05004KT 10SM OVC014 20/19 A3003 RMK AO2 T01980191 =
2014-10-01 09:55 METAR KEZF 011355Z AUTO 04005KT 10SM OVC011 20/19 A3002 RMK AO2 T01960192 =
2014-10-01 09:35 METAR KEZF 011335Z AUTO 07003KT 10SM BKN007 OVC012 20/19 A3001 RMK AO2 T01950193
                 =
2014-10-01 09:15 METAR KEZF 011315Z AUTO 08003KT 10SM SCT007 BKN060 19/19 A3001 RMK AO2 T01940194
                 =
2014-10-01 08:55 METAR KEZF 011255Z AUTO 09004KT 10SM SCT011 SCT017 BKN060 19/19 A3000 RMK AO2
                 T01900190 =
2014-10-01 08:35 METAR KEZF 011235Z AUTO 00000KT 7SM OVC013 19/19 A2999 RMK AO2 T01850185 =

Support USWX by starting your Amazon purchase here.